sensor_id;sensor_type;location;lat;lon;timestamp;pressure;altitude;pressure_sealevel;temperature;humidity
12775;BME280;6451;42.630;23.382;2023-10-19T00:00:49;94461.59;;;7.06;100.00
12775;BME280;6451;42.630;23.382;2023-10-19T00:03:16;94451.88;;;7.22;100.00
12775;BME280;6451;42.630;23.382;2023-10-19T00:05:44;94468.03;;;7.31;100.00
12775;BME280;6451;42.630;23.382;2023-10-19T00:08:11;94459.47;;;7.29;100.00
12775;BME280;6451;42.630;23.382;2023-10-19T00:10:45;94445.03;;;7.24;100.00
12775;BME280;6451;42.630;23.382;2023-10-19T00:13:14;94445.66;;;7.30;100.00
12775;BME280;6451;42.630;23.382;2023-10-19T00:15:44;94447.50;;;7.47;100.00
12775;BME280;6451;42.630;23.382;2023-10-19T00:18:15;94445.44;;;7.44;100.00
12775;BME280;6451;42.630;23.382;2023-10-19T00:20:51;94446.69;;;7.46;100.00
12775;BME280;6451;42.630;23.382;2023-10-19T00:23:19;94452.81;;;7.64;100.00
12775;BME280;6451;42.630;23.382;2023-10-19T00:25:50;94442.06;;;7.56;100.00
12775;BME280;6451;42.630;23.382;2023-10-19T00:28:18;94420.94;;;7.49;100.00
12775;BME280;6451;42.630;23.382;2023-10-19T00:30:44;94434.63;;;7.52;100.00
12775;BME280;6451;42.630;23.382;2023-10-19T00:33:11;94413.06;;;7.35;100.00
12775;BME280;6451;42.630;23.382;2023-10-19T00:35:45;94415.44;;;7.45;100.00
12775;BME280;6451;42.630;23.382;2023-10-19T00:38:23;94432.53;;;7.49;100.00
12775;BME280;6451;42.630;23.382;2023-10-19T00:41:09;94430.66;;;7.41;100.00
12775;BME280;6451;42.630;23.382;2023-10-19T00:43:46;94427.81;;;7.46;100.00
12775;BME280;6451;42.630;23.382;2023-10-19T00:46:15;94408.44;;;7.36;100.00
12775;BME280;6451;42.630;23.382;2023-10-19T00:48:48;94421.91;;;7.53;100.00
12775;BME280;6451;42.630;23.382;2023-10-19T00:51:18;94420.91;;;7.58;100.00
12775;BME280;6451;42.630;23.382;2023-10-19T00:53:57;94418.09;;;7.54;100.00
12775;BME280;6451;42.630;23.382;2023-10-19T00:56:26;94428.88;;;7.54;100.00
12775;BME280;6451;42.630;23.382;2023-10-19T00:58:58;94418.81;;;7.63;100.00
12775;BME280;6451;42.630;23.382;2023-10-19T01:01:33;94402.00;;;7.58;100.00
12775;BME280;6451;42.630;23.382;2023-10-19T01:04:06;94398.72;;;7.52;100.00
12775;BME280;6451;42.630;23.382;2023-10-19T01:06:35;94420.13;;;7.57;100.00
12775;BME280;6451;42.630;23.382;2023-10-19T01:09:02;94412.69;;;7.54;100.00
12775;BME280;6451;42.630;23.382;2023-10-19T01:11:30;94425.47;;;7.66;100.00
12775;BME280;6451;42.630;23.382;2023-10-19T01:14:17;94419.03;;;7.49;100.00
12775;BME280;6451;42.630;23.382;2023-10-19T01:16:44;94417.63;;;7.43;100.00
12775;BME280;6451;42.630;23.382;2023-10-19T01:19:13;94416.38;;;7.41;100.00
12775;BME280;6451;42.630;23.382;2023-10-19T01:21:45;94424.66;;;7.36;100.00
12775;BME280;6451;42.630;23.382;2023-10-19T01:24:18;94428.78;;;7.33;100.00
12775;BME280;6451;42.630;23.382;2023-10-19T01:26:53;94424.19;;;7.34;100.00
12775;BME280;6451;42.630;23.382;2023-10-19T01:29:23;94391.88;;;7.16;100.00
12775;BME280;6451;42.630;23.382;2023-10-19T01:31:53;94423.03;;;7.43;100.00
12775;BME280;6451;42.630;23.382;2023-10-19T01:34:31;94421.41;;;7.51;100.00
12775;BME280;6451;42.630;23.382;2023-10-19T01:37:00;94396.88;;;7.35;100.00
12775;BME280;6451;42.630;23.382;2023-10-19T01:39:31;94406.53;;;7.45;100.00
12775;BME280;6451;42.630;23.382;2023-10-19T01:41:57;94420.31;;;7.52;100.00
12775;BME280;6451;42.630;23.382;2023-10-19T01:44:24;94424.88;;;7.60;100.00
12775;BME280;6451;42.630;23.382;2023-10-19T01:46:50;94429.38;;;7.47;100.00
12775;BME280;6451;42.630;23.382;2023-10-19T01:49:17;94416.84;;;7.43;100.00
12775;BME280;6451;42.630;23.382;2023-10-19T01:51:53;94382.00;;;7.20;100.00
12775;BME280;6451;42.630;23.382;2023-10-19T01:54:21;94422.44;;;7.38;100.00
12775;BME280;6451;42.630;23.382;2023-10-19T01:56:52;94428.47;;;7.35;100.00
12775;BME280;6451;42.630;23.382;2023-10-19T01:59:22;94430.53;;;7.38;100.00
12775;BME280;6451;42.630;23.382;2023-10-19T02:01:48;94433.69;;;7.40;100.00
12775;BME280;6451;42.630;23.382;2023-10-19T02:04:16;94429.88;;;7.41;100.00
12775;BME280;6451;42.630;23.382;2023-10-19T02:06:42;94418.13;;;7.45;100.00
12775;BME280;6451;42.630;23.382;2023-10-19T02:09:13;94407.31;;;7.45;100.00
12775;BME280;6451;42.630;23.382;2023-10-19T02:11:49;94395.94;;;7.31;100.00
12775;BME280;6451;42.630;23.382;2023-10-19T02:14:19;94417.19;;;7.41;100.00
12775;BME280;6451;42.630;23.382;2023-10-19T02:16:48;94420.66;;;7.42;100.00
12775;BME280;6451;42.630;23.382;2023-10-19T02:19:16;94419.25;;;7.44;100.00
12775;BME280;6451;42.630;23.382;2023-10-19T02:21:42;94419.75;;;7.38;100.00
12775;BME280;6451;42.630;23.382;2023-10-19T02:24:13;94426.38;;;7.40;100.00
12775;BME280;6451;42.630;23.382;2023-10-19T02:26:40;94421.78;;;7.41;100.00
12775;BME280;6451;42.630;23.382;2023-10-19T02:29:07;94433.03;;;7.43;100.00
12775;BME280;6451;42.630;23.382;2023-10-19T02:31:37;94422.59;;;7.33;100.00
12775;BME280;6451;42.630;23.382;2023-10-19T02:34:05;94432.63;;;7.32;100.00
12775;BME280;6451;42.630;23.382;2023-10-19T02:36:33;94423.09;;;7.26;100.00
12775;BME280;6451;42.630;23.382;2023-10-19T02:39:04;94406.94;;;7.17;100.00
12775;BME280;6451;42.630;23.382;2023-10-19T02:41:33;94421.03;;;7.32;100.00
12775;BME280;6451;42.630;23.382;2023-10-19T02:44:02;94429.59;;;7.34;100.00
12775;BME280;6451;42.630;23.382;2023-10-19T02:46:33;94426.25;;;7.28;100.00
12775;BME280;6451;42.630;23.382;2023-10-19T02:49:03;94414.69;;;7.28;100.00
12775;BME280;6451;42.630;23.382;2023-10-19T02:51:30;94410.72;;;7.25;100.00
12775;BME280;6451;42.630;23.382;2023-10-19T02:53:57;94418.78;;;7.34;100.00
12775;BME280;6451;42.630;23.382;2023-10-19T02:56:25;94430.44;;;7.17;100.00
12775;BME280;6451;42.630;23.382;2023-10-19T02:58:52;94430.91;;;7.19;100.00
12775;BME280;6451;42.630;23.382;2023-10-19T03:01:20;94414.44;;;7.03;100.00
12775;BME280;6451;42.630;23.382;2023-10-19T03:03:51;94432.84;;;7.10;100.00
12775;BME280;6451;42.630;23.382;2023-10-19T03:06:21;94417.13;;;7.03;100.00
12775;BME280;6451;42.630;23.382;2023-10-19T03:08:48;94415.34;;;7.24;100.00
12775;BME280;6451;42.630;23.382;2023-10-19T03:11:21;94419.97;;;7.15;100.00
12775;BME280;6451;42.630;23.382;2023-10-19T03:13:47;94407.59;;;7.14;100.00
12775;BME280;6451;42.630;23.382;2023-10-19T03:16:15;94404.28;;;7.09;100.00
12775;BME280;6451;42.630;23.382;2023-10-19T03:18:42;94413.19;;;7.01;100.00
12775;BME280;6451;42.630;23.382;2023-10-19T03:21:09;94409.38;;;7.02;100.00
12775;BME280;6451;42.630;23.382;2023-10-19T03:23:38;94418.91;;;6.99;100.00
12775;BME280;6451;42.630;23.382;2023-10-19T03:26:06;94405.72;;;6.97;100.00
12775;BME280;6451;42.630;23.382;2023-10-19T03:28:56;94402.06;;;7.02;100.00
12775;BME280;6451;42.630;23.382;2023-10-19T03:31:26;94411.13;;;6.97;100.00
12775;BME280;6451;42.630;23.382;2023-10-19T03:33:53;94411.59;;;7.00;100.00
12775;BME280;6451;42.630;23.382;2023-10-19T03:36:25;94410.00;;;7.07;100.00
12775;BME280;6451;42.630;23.382;2023-10-19T03:38:55;94408.28;;;6.94;100.00
12775;BME280;6451;42.630;23.382;2023-10-19T03:41:25;94404.63;;;6.90;100.00
12775;BME280;6451;42.630;23.382;2023-10-19T03:43:53;94392.59;;;6.79;100.00
12775;BME280;6451;42.630;23.382;2023-10-19T03:46:22;94313.09;;;6.21;100.00
12775;BME280;6451;42.630;23.382;2023-10-19T03:48:54;94389.28;;;6.73;100.00
12775;BME280;6451;42.630;23.382;2023-10-19T03:51:26;94396.56;;;6.81;100.00
12775;BME280;6451;42.630;23.382;2023-10-19T03:54:06;94396.88;;;6.88;100.00
12775;BME280;6451;42.630;23.382;2023-10-19T03:56:46;94343.78;;;6.72;100.00
12775;BME280;6451;42.630;23.382;2023-10-19T03:59:15;94391.31;;;6.93;100.00
12775;BME280;6451;42.630;23.382;2023-10-19T04:01:42;94392.59;;;6.87;100.00
12775;BME280;6451;42.630;23.382;2023-10-19T04:04:10;94395.16;;;6.75;100.00
12775;BME280;6451;42.630;23.382;2023-10-19T04:06:37;94388.97;;;6.66;100.00
12775;BME280;6451;42.630;23.382;2023-10-19T04:09:05;94392.31;;;6.63;100.00
12775;BME280;6451;42.630;23.382;2023-10-19T04:11:33;94387.09;;;6.58;100.00
12775;BME280;6451;42.630;23.382;2023-10-19T04:14:13;94395.81;;;6.63;100.00
12775;BME280;6451;42.630;23.382;2023-10-19T04:16:40;94387.38;;;6.74;100.00
12775;BME280;6451;42.630;23.382;2023-10-19T04:19:08;94390.56;;;6.76;100.00
12775;BME280;6451;42.630;23.382;2023-10-19T04:21:35;94390.72;;;6.71;100.00
12775;BME280;6451;42.630;23.382;2023-10-19T04:24:06;94360.16;;;6.49;100.00
12775;BME280;6451;42.630;23.382;2023-10-19T04:26:34;94397.50;;;6.85;100.00
12775;BME280;6451;42.630;23.382;2023-10-19T04:29:03;94390.06;;;6.82;100.00
12775;BME280;6451;42.630;23.382;2023-10-19T04:31:35;94392.72;;;7.00;100.00
12775;BME280;6451;42.630;23.382;2023-10-19T04:34:06;94384.16;;;6.89;100.00
12775;BME280;6451;42.630;23.382;2023-10-19T04:36:36;94393.69;;;6.95;100.00
12775;BME280;6451;42.630;23.382;2023-10-19T04:39:06;94393.06;;;6.89;100.00
12775;BME280;6451;42.630;23.382;2023-10-19T04:41:37;94389.91;;;6.79;100.00
12775;BME280;6451;42.630;23.382;2023-10-19T04:44:04;94383.75;;;6.69;100.00
12775;BME280;6451;42.630;23.382;2023-10-19T04:46:34;94368.19;;;6.66;100.00
12775;BME280;6451;42.630;23.382;2023-10-19T04:49:01;94377.25;;;6.71;100.00
12775;BME280;6451;42.630;23.382;2023-10-19T04:51:29;94379.09;;;6.87;100.00
12775;BME280;6451;42.630;23.382;2023-10-19T04:53:56;94365.00;;;6.90;100.00
12775;BME280;6451;42.630;23.382;2023-10-19T04:56:24;94374.16;;;6.98;100.00
12775;BME280;6451;42.630;23.382;2023-10-19T04:58:51;94369.06;;;6.96;100.00
12775;BME280;6451;42.630;23.382;2023-10-19T05:01:18;94354.50;;;6.89;100.00
12775;BME280;6451;42.630;23.382;2023-10-19T05:03:45;94367.03;;;6.93;100.00
12775;BME280;6451;42.630;23.382;2023-10-19T05:06:12;94376.19;;;7.10;100.00
12775;BME280;6451;42.630;23.382;2023-10-19T05:08:39;94380.78;;;7.09;100.00
12775;BME280;6451;42.630;23.382;2023-10-19T05:11:06;94373.50;;;7.01;100.00
12775;BME280;6451;42.630;23.382;2023-10-19T05:13:35;94366.69;;;6.95;100.00
12775;BME280;6451;42.630;23.382;2023-10-19T05:16:02;94374.31;;;7.02;100.00
12775;BME280;6451;42.630;23.382;2023-10-19T05:18:31;94326.16;;;6.74;100.00
12775;BME280;6451;42.630;23.382;2023-10-19T05:20:58;94382.03;;;7.12;100.00
12775;BME280;6451;42.630;23.382;2023-10-19T05:23:27;94368.06;;;7.18;100.00
12775;BME280;6451;42.630;23.382;2023-10-19T05:26:00;94385.28;;;7.35;100.00
12775;BME280;6451;42.630;23.382;2023-10-19T05:28:28;94226.72;;;6.26;100.00
12775;BME280;6451;42.630;23.382;2023-10-19T05:30:56;94378.25;;;7.42;100.00
12775;BME280;6451;42.630;23.382;2023-10-19T05:33:25;94385.78;;;7.37;100.00
12775;BME280;6451;42.630;23.382;2023-10-19T05:35:54;94367.78;;;7.41;100.00
12775;BME280;6451;42.630;23.382;2023-10-19T05:38:21;94368.50;;;7.59;100.00
12775;BME280;6451;42.630;23.382;2023-10-19T05:40:48;94375.28;;;7.65;100.00
12775;BME280;6451;42.630;23.382;2023-10-19T05:43:17;94381.81;;;7.64;100.00
12775;BME280;6451;42.630;23.382;2023-10-19T05:45:44;94362.63;;;7.57;100.00
12775;BME280;6451;42.630;23.382;2023-10-19T05:48:15;94392.78;;;7.88;100.00
12775;BME280;6451;42.630;23.382;2023-10-19T05:50:43;94373.75;;;7.85;100.00
12775;BME280;6451;42.630;23.382;2023-10-19T05:53:09;94395.69;;;8.04;100.00
12775;BME280;6451;42.630;23.382;2023-10-19T05:55:37;94392.69;;;8.26;100.00
12775;BME280;6451;42.630;23.382;2023-10-19T05:58:05;94398.78;;;8.44;100.00
12775;BME280;6451;42.630;23.382;2023-10-19T06:00:32;94397.63;;;8.66;100.00
12775;BME280;6451;42.630;23.382;2023-10-19T06:03:00;94398.81;;;8.77;100.00
12775;BME280;6451;42.630;23.382;2023-10-19T06:05:29;94401.59;;;8.69;100.00
12775;BME280;6451;42.630;23.382;2023-10-19T06:08:09;94404.03;;;8.82;100.00
12775;BME280;6451;42.630;23.382;2023-10-19T06:10:39;94413.28;;;8.94;100.00
12775;BME280;6451;42.630;23.382;2023-10-19T06:13:07;94404.00;;;9.28;100.00
12775;BME280;6451;42.630;23.382;2023-10-19T06:15:35;94403.09;;;9.24;100.00
12775;BME280;6451;42.630;23.382;2023-10-19T06:18:02;94400.97;;;9.29;100.00
12775;BME280;6451;42.630;23.382;2023-10-19T06:20:31;94401.22;;;9.36;100.00
12775;BME280;6451;42.630;23.382;2023-10-19T06:22:59;94395.91;;;9.40;100.00
12775;BME280;6451;42.630;23.382;2023-10-19T06:25:30;94379.09;;;9.34;100.00
12775;BME280;6451;42.630;23.382;2023-10-19T06:27:57;94401.34;;;9.52;100.00
12775;BME280;6451;42.630;23.382;2023-10-19T06:30:25;94402.69;;;9.46;100.00
12775;BME280;6451;42.630;23.382;2023-10-19T06:32:54;94405.38;;;9.58;100.00
12775;BME280;6451;42.630;23.382;2023-10-19T06:35:22;94402.13;;;9.65;100.00
12775;BME280;6451;42.630;23.382;2023-10-19T06:37:52;94365.53;;;9.22;100.00
12775;BME280;6451;42.630;23.382;2023-10-19T06:40:20;94393.66;;;9.54;100.00
12775;BME280;6451;42.630;23.382;2023-10-19T06:42:48;94395.13;;;9.39;100.00
12775;BME280;6451;42.630;23.382;2023-10-19T06:45:16;94393.31;;;9.56;100.00
12775;BME280;6451;42.630;23.382;2023-10-19T06:47:45;94387.09;;;9.80;100.00
12775;BME280;6451;42.630;23.382;2023-10-19T06:50:16;94381.47;;;9.97;100.00
12775;BME280;6451;42.630;23.382;2023-10-19T06:52:44;94397.03;;;10.12;100.00
12775;BME280;6451;42.630;23.382;2023-10-19T06:55:13;94400.50;;;10.37;100.00
12775;BME280;6451;42.630;23.382;2023-10-19T06:57:42;94398.59;;;10.38;100.00
12775;BME280;6451;42.630;23.382;2023-10-19T07:00:10;94401.22;;;10.62;100.00
12775;BME280;6451;42.630;23.382;2023-10-19T07:02:41;94398.59;;;10.66;100.00
12775;BME280;6451;42.630;23.382;2023-10-19T07:05:09;94394.16;;;10.73;100.00
12775;BME280;6451;42.630;23.382;2023-10-19T07:07:40;94377.03;;;10.57;100.00
12775;BME280;6451;42.630;23.382;2023-10-19T07:10:10;94365.13;;;10.74;100.00
12775;BME280;6451;42.630;23.382;2023-10-19T07:12:41;94371.84;;;10.80;100.00
12775;BME280;6451;42.630;23.382;2023-10-19T07:15:08;94370.47;;;10.86;100.00
12775;BME280;6451;42.630;23.382;2023-10-19T07:17:39;94368.38;;;10.95;100.00
12775;BME280;6451;42.630;23.382;2023-10-19T07:20:09;94373.97;;;10.86;100.00
12775;BME280;6451;42.630;23.382;2023-10-19T07:22:47;94382.44;;;10.97;100.00
12775;BME280;6451;42.630;23.382;2023-10-19T07:25:14;94378.88;;;11.25;100.00
12775;BME280;6451;42.630;23.382;2023-10-19T07:27:42;94374.41;;;11.32;100.00
12775;BME280;6451;42.630;23.382;2023-10-19T07:30:10;94377.63;;;11.22;100.00
12775;BME280;6451;42.630;23.382;2023-10-19T07:32:40;94376.25;;;11.60;100.00
12775;BME280;6451;42.630;23.382;2023-10-19T07:35:08;94382.13;;;11.78;100.00
12775;BME280;6451;42.630;23.382;2023-10-19T07:37:35;94378.09;;;11.56;100.00
12775;BME280;6451;42.630;23.382;2023-10-19T07:40:04;94346.97;;;11.69;100.00
12775;BME280;6451;42.630;23.382;2023-10-19T07:42:32;94384.22;;;12.00;100.00
12775;BME280;6451;42.630;23.382;2023-10-19T07:45:03;94383.88;;;11.70;100.00
12775;BME280;6451;42.630;23.382;2023-10-19T07:47:30;94391.97;;;11.82;100.00
12775;BME280;6451;42.630;23.382;2023-10-19T07:49:57;94383.19;;;11.89;100.00
12775;BME280;6451;42.630;23.382;2023-10-19T07:52:25;94403.22;;;12.16;100.00
12775;BME280;6451;42.630;23.382;2023-10-19T07:54:52;94404.00;;;12.16;100.00
12775;BME280;6451;42.630;23.382;2023-10-19T07:57:19;94384.28;;;12.04;100.00
12775;BME280;6451;42.630;23.382;2023-10-19T07:59:47;94402.38;;;12.12;100.00
12775;BME280;6451;42.630;23.382;2023-10-19T08:04:51;94387.19;;;11.95;100.00
12775;BME280;6451;42.630;23.382;2023-10-19T08:07:18;94391.84;;;11.94;100.00
12775;BME280;6451;42.630;23.382;2023-10-19T08:09:45;94396.78;;;11.89;100.00
12775;BME280;6451;42.630;23.382;2023-10-19T08:12:12;94390.09;;;11.86;100.00
12775;BME280;6451;42.630;23.382;2023-10-19T08:14:40;94397.47;;;11.54;100.00
12775;BME280;6451;42.630;23.382;2023-10-19T08:17:08;94367.03;;;11.49;100.00
12775;BME280;6451;42.630;23.382;2023-10-19T08:19:35;94398.69;;;11.88;100.00
12775;BME280;6451;42.630;23.382;2023-10-19T08:22:03;94387.84;;;12.23;100.00
12775;BME280;6451;42.630;23.382;2023-10-19T08:24:31;94378.84;;;12.39;100.00
12775;BME280;6451;42.630;23.382;2023-10-19T08:27:00;94397.00;;;12.50;100.00
12775;BME280;6451;42.630;23.382;2023-10-19T08:29:30;94391.81;;;12.45;100.00
12775;BME280;6451;42.630;23.382;2023-10-19T08:31:57;94392.88;;;12.41;100.00
12775;BME280;6451;42.630;23.382;2023-10-19T08:34:24;94376.88;;;11.85;100.00
12775;BME280;6451;42.630;23.382;2023-10-19T08:36:51;94395.22;;;12.23;100.00
12775;BME280;6451;42.630;23.382;2023-10-19T08:39:21;94394.59;;;12.30;100.00
12775;BME280;6451;42.630;23.382;2023-10-19T08:41:50;94399.41;;;12.36;100.00
12775;BME280;6451;42.630;23.382;2023-10-19T08:44:21;94406.44;;;12.57;100.00
12775;BME280;6451;42.630;23.382;2023-10-19T08:46:47;94353.44;;;12.31;100.00
12775;BME280;6451;42.630;23.382;2023-10-19T08:49:15;94401.09;;;12.60;100.00
12775;BME280;6451;42.630;23.382;2023-10-19T08:51:44;94393.13;;;12.90;100.00
12775;BME280;6451;42.630;23.382;2023-10-19T08:54:12;94399.00;;;13.12;100.00
12775;BME280;6451;42.630;23.382;2023-10-19T08:56:42;94392.63;;;13.04;100.00
12775;BME280;6451;42.630;23.382;2023-10-19T08:59:10;94385.16;;;13.01;100.00
12775;BME280;6451;42.630;23.382;2023-10-19T09:01:37;94395.28;;;13.20;100.00
12775;BME280;6451;42.630;23.382;2023-10-19T09:04:05;94392.88;;;13.38;100.00
12775;BME280;6451;42.630;23.382;2023-10-19T09:06:35;94399.41;;;13.56;100.00
12775;BME280;6451;42.630;23.382;2023-10-19T09:09:07;94409.06;;;13.50;100.00
12775;BME280;6451;42.630;23.382;2023-10-19T09:11:40;94378.25;;;13.26;100.00
12775;BME280;6451;42.630;23.382;2023-10-19T09:14:07;94385.53;;;13.42;100.00
12775;BME280;6451;42.630;23.382;2023-10-19T09:16:34;94389.13;;;13.46;100.00
12775;BME280;6451;42.630;23.382;2023-10-19T09:19:02;94372.34;;;13.67;100.00
12775;BME280;6451;42.630;23.382;2023-10-19T09:21:29;94386.97;;;14.04;100.00
12775;BME280;6451;42.630;23.382;2023-10-19T09:23:58;94388.59;;;14.09;100.00
12775;BME280;6451;42.630;23.382;2023-10-19T09:26:25;94352.44;;;13.89;100.00
12775;BME280;6451;42.630;23.382;2023-10-19T09:28:53;94363.16;;;13.52;100.00
12775;BME280;6451;42.630;23.382;2023-10-19T09:31:20;94365.84;;;13.75;100.00
12775;BME280;6451;42.630;23.382;2023-10-19T09:33:50;94359.56;;;13.71;100.00
12775;BME280;6451;42.630;23.382;2023-10-19T09:36:18;94341.16;;;13.90;100.00
12775;BME280;6451;42.630;23.382;2023-10-19T09:38:49;94346.09;;;14.08;100.00
12775;BME280;6451;42.630;23.382;2023-10-19T09:41:17;94349.97;;;14.07;100.00
12775;BME280;6451;42.630;23.382;2023-10-19T09:43:46;94331.72;;;14.11;100.00
12775;BME280;6451;42.630;23.382;2023-10-19T09:46:20;94337.22;;;14.14;100.00
12775;BME280;6451;42.630;23.382;2023-10-19T09:48:48;94323.88;;;14.66;100.00
12775;BME280;6451;42.630;23.382;2023-10-19T09:51:17;94335.78;;;14.84;100.00
12775;BME280;6451;42.630;23.382;2023-10-19T09:53:51;94326.06;;;15.24;100.00
12775;BME280;6451;42.630;23.382;2023-10-19T09:56:24;94317.91;;;15.27;100.00
12775;BME280;6451;42.630;23.382;2023-10-19T09:58:57;94313.59;;;15.67;100.00
12775;BME280;6451;42.630;23.382;2023-10-19T10:01:28;94292.72;;;15.52;100.00
12775;BME280;6451;42.630;23.382;2023-10-19T10:04:30;94303.88;;;15.33;100.00
12775;BME280;6451;42.630;23.382;2023-10-19T10:06:58;94259.25;;;15.21;100.00
12775;BME280;6451;42.630;23.382;2023-10-19T10:09:26;94307.25;;;15.60;100.00
12775;BME280;6451;42.630;23.382;2023-10-19T10:11:55;94296.66;;;15.54;100.00
12775;BME280;6451;42.630;23.382;2023-10-19T10:14:23;94289.09;;;15.37;100.00
12775;BME280;6451;42.630;23.382;2023-10-19T10:17:00;94299.69;;;15.42;100.00
12775;BME280;6451;42.630;23.382;2023-10-19T10:19:28;94301.06;;;15.66;100.00
12775;BME280;6451;42.630;23.382;2023-10-19T10:22:03;94295.06;;;15.53;100.00
12775;BME280;6451;42.630;23.382;2023-10-19T10:24:40;94288.38;;;15.47;100.00
12775;BME280;6451;42.630;23.382;2023-10-19T10:27:08;94292.41;;;15.61;100.00
12775;BME280;6451;42.630;23.382;2023-10-19T10:29:36;94289.94;;;15.48;100.00
12775;BME280;6451;42.630;23.382;2023-10-19T10:32:05;94280.22;;;15.51;100.00
12775;BME280;6451;42.630;23.382;2023-10-19T10:34:45;94269.03;;;15.67;100.00
12775;BME280;6451;42.630;23.382;2023-10-19T10:37:15;94294.84;;;15.69;100.00
12775;BME280;6451;42.630;23.382;2023-10-19T10:39:42;94268.25;;;15.70;100.00
12775;BME280;6451;42.630;23.382;2023-10-19T10:42:10;94280.13;;;15.92;100.00
12775;BME280;6451;42.630;23.382;2023-10-19T10:44:39;94270.31;;;15.83;100.00
12775;BME280;6451;42.630;23.382;2023-10-19T10:47:12;94255.94;;;15.97;100.00
12775;BME280;6451;42.630;23.382;2023-10-19T10:49:49;94234.00;;;15.94;100.00
12775;BME280;6451;42.630;23.382;2023-10-19T10:52:27;94238.66;;;15.86;100.00
12775;BME280;6451;42.630;23.382;2023-10-19T10:54:57;94243.78;;;15.88;100.00
12775;BME280;6451;42.630;23.382;2023-10-19T10:57:31;94228.56;;;15.97;100.00
12775;BME280;6451;42.630;23.382;2023-10-19T11:00:04;94195.63;;;15.76;100.00
12775;BME280;6451;42.630;23.382;2023-10-19T11:02:34;94236.09;;;16.15;100.00
12775;BME280;6451;42.630;23.382;2023-10-19T11:05:03;94227.84;;;16.07;100.00
12775;BME280;6451;42.630;23.382;2023-10-19T11:07:30;94225.97;;;16.26;100.00
12775;BME280;6451;42.630;23.382;2023-10-19T11:09:57;94213.53;;;16.46;100.00
12775;BME280;6451;42.630;23.382;2023-10-19T11:12:24;94199.44;;;16.48;100.00
12775;BME280;6451;42.630;23.382;2023-10-19T11:14:52;94195.13;;;16.47;100.00
12775;BME280;6451;42.630;23.382;2023-10-19T11:17:20;94191.63;;;16.46;100.00
12775;BME280;6451;42.630;23.382;2023-10-19T11:19:56;94193.22;;;16.61;100.00
12775;BME280;6451;42.630;23.382;2023-10-19T11:22:24;94188.13;;;16.53;100.00
12775;BME280;6451;42.630;23.382;2023-10-19T11:24:53;94187.66;;;16.40;100.00
12775;BME280;6451;42.630;23.382;2023-10-19T11:27:24;94170.06;;;16.37;100.00
12775;BME280;6451;42.630;23.382;2023-10-19T11:29:56;94167.03;;;16.64;100.00
12775;BME280;6451;42.630;23.382;2023-10-19T11:32:23;94134.50;;;16.55;100.00
12775;BME280;6451;42.630;23.382;2023-10-19T11:34:52;94172.94;;;16.73;100.00
12775;BME280;6451;42.630;23.382;2023-10-19T11:37:22;94172.16;;;16.90;100.00
12775;BME280;6451;42.630;23.382;2023-10-19T11:39:48;94170.97;;;16.81;100.00
12775;BME280;6451;42.630;23.382;2023-10-19T11:42:17;94162.38;;;16.72;100.00
12775;BME280;6451;42.630;23.382;2023-10-19T11:44:45;94158.81;;;16.78;100.00
12775;BME280;6451;42.630;23.382;2023-10-19T11:47:12;94162.00;;;16.87;100.00
12775;BME280;6451;42.630;23.382;2023-10-19T11:49:42;94156.06;;;16.71;100.00
12775;BME280;6451;42.630;23.382;2023-10-19T11:52:09;94115.75;;;16.64;100.00
12775;BME280;6451;42.630;23.382;2023-10-19T11:54:37;94154.91;;;16.86;100.00
12775;BME280;6451;42.630;23.382;2023-10-19T11:57:04;94151.03;;;16.94;100.00
12775;BME280;6451;42.630;23.382;2023-10-19T11:59:31;94151.00;;;17.02;100.00
12775;BME280;6451;42.630;23.382;2023-10-19T12:01:58;94148.28;;;16.98;100.00
12775;BME280;6451;42.630;23.382;2023-10-19T12:04:26;94148.69;;;17.18;100.00
12775;BME280;6451;42.630;23.382;2023-10-19T12:06:53;94075.03;;;16.63;100.00
12775;BME280;6451;42.630;23.382;2023-10-19T12:09:20;94145.53;;;17.34;100.00
12775;BME280;6451;42.630;23.382;2023-10-19T12:11:51;94157.25;;;17.38;100.00
12775;BME280;6451;42.630;23.382;2023-10-19T12:14:20;94138.84;;;17.45;100.00
12775;BME280;6451;42.630;23.382;2023-10-19T12:16:48;94127.13;;;17.27;100.00
12775;BME280;6451;42.630;23.382;2023-10-19T12:19:15;94141.94;;;17.55;100.00
12775;BME280;6451;42.630;23.382;2023-10-19T12:21:44;94130.97;;;17.62;100.00
12775;BME280;6451;42.630;23.382;2023-10-19T12:24:11;94123.13;;;17.60;100.00
12775;BME280;6451;42.630;23.382;2023-10-19T12:26:38;94130.19;;;17.61;100.00
12775;BME280;6451;42.630;23.382;2023-10-19T12:29:06;94119.56;;;17.77;100.00
12775;BME280;6451;42.630;23.382;2023-10-19T12:31:36;94127.00;;;17.84;100.00
12775;BME280;6451;42.630;23.382;2023-10-19T12:34:05;94110.59;;;17.73;100.00
12775;BME280;6451;42.630;23.382;2023-10-19T12:36:34;94107.78;;;17.84;100.00
12775;BME280;6451;42.630;23.382;2023-10-19T12:39:01;94109.66;;;18.05;100.00
12775;BME280;6451;42.630;23.382;2023-10-19T12:41:30;94116.31;;;18.08;100.00
12775;BME280;6451;42.630;23.382;2023-10-19T12:43:58;94108.16;;;17.90;100.00
12775;BME280;6451;42.630;23.382;2023-10-19T12:46:30;94103.44;;;17.94;100.00
12775;BME280;6451;42.630;23.382;2023-10-19T12:48:57;94101.13;;;17.78;100.00
12775;BME280;6451;42.630;23.382;2023-10-19T12:51:24;94104.25;;;17.87;100.00
12775;BME280;6451;42.630;23.382;2023-10-19T12:53:52;94094.00;;;17.98;100.00
12775;BME280;6451;42.630;23.382;2023-10-19T12:56:19;94100.25;;;18.10;100.00
12775;BME280;6451;42.630;23.382;2023-10-19T12:58:46;94086.16;;;18.00;100.00
12775;BME280;6451;42.630;23.382;2023-10-19T13:01:13;94099.53;;;17.95;100.00
12775;BME280;6451;42.630;23.382;2023-10-19T13:03:45;94088.09;;;18.07;100.00
12775;BME280;6451;42.630;23.382;2023-10-19T13:06:13;94095.09;;;18.15;100.00
12775;BME280;6451;42.630;23.382;2023-10-19T13:08:40;94090.00;;;18.14;100.00